Time;durP1;ratioP1;P1;durP2;ratioP2;P2;SDS_P1;SDS_P2;PMS_P1;PMS_P2;Temp;Humidity;BMP_temperature;BMP_pressure;BME280_temperature;BME280_humidity;BME280_pressure;Samples;Min_cycle;Max_cycle;Signal;HPM_P1;HPM_P2
2023/08/16 00:01:13;;;;;;;3.75;3.35;;;21.70;99.90;;;;;;951317;147;27445;-75
2023/08/16 00:03:38;;;;;;;8.30;3.20;;;21.60;99.90;;;;;;951619;147;27437;-76
2023/08/16 00:06:07;;;;;;;4.03;3.62;;;21.60;99.90;;;;;;951829;147;27313;-75
2023/08/16 00:08:34;;;;;;;3.70;3.40;;;21.60;99.90;;;;;;950626;147;27523;-75
2023/08/16 00:11:01;;;;;;;3.50;3.20;;;21.60;99.90;;;;;;951624;147;27301;-77
2023/08/16 00:13:27;;;;;;;3.72;3.42;;;21.50;99.90;;;;;;951488;147;27330;-77
2023/08/16 00:15:54;;;;;;;3.33;3.02;;;21.50;99.90;;;;;;950775;147;27309;-76
2023/08/16 00:18:20;;;;;;;3.35;3.15;;;21.50;99.90;;;;;;951137;147;27348;-77
2023/08/16 00:20:47;;;;;;;4.22;3.10;;;21.40;99.90;;;;;;951122;147;27358;-77
2023/08/16 00:23:14;;;;;;;3.80;3.50;;;21.40;99.90;;;;;;950676;147;27317;-76
2023/08/16 00:25:40;;;;;;;4.35;3.50;;;21.40;99.90;;;;;;950513;147;27320;-77
2023/08/16 00:28:07;;;;;;;3.30;3.10;;;21.40;99.90;;;;;;951826;147;27262;-75
2023/08/16 00:30:33;;;;;;;3.47;3.17;;;21.40;99.90;;;;;;950783;147;27336;-76
2023/08/16 00:33:00;;;;;;;4.15;3.33;;;21.30;99.90;;;;;;951521;147;27305;-76
2023/08/16 00:35:26;;;;;;;4.05;3.20;;;21.30;99.90;;;;;;951031;147;27342;-77
2023/08/16 00:37:53;;;;;;;3.87;3.47;;;21.30;99.90;;;;;;950972;147;27761;-76
2023/08/16 00:40:20;;;;;;;4.15;3.52;;;21.30;99.90;;;;;;951245;147;27425;-74
2023/08/16 00:42:46;;;;;;;5.17;3.98;;;21.20;99.90;;;;;;950626;147;27359;-75
2023/08/16 00:45:13;;;;;;;4.35;3.95;;;21.20;99.90;;;;;;951731;147;27455;-76
2023/08/16 00:47:39;;;;;;;3.55;3.22;;;21.20;99.90;;;;;;951225;147;27320;-77
2023/08/16 00:50:06;;;;;;;3.50;3.20;;;21.20;99.90;;;;;;951021;147;27317;-75
2023/08/16 00:52:33;;;;;;;4.53;3.12;;;21.10;99.90;;;;;;950979;147;27429;-76
2023/08/16 00:55:02;;;;;;;5.35;3.83;;;21.10;99.90;;;;;;951264;147;27957;-77
2023/08/16 00:57:26;;;;;;;3.77;3.50;;;21.10;99.90;;;;;;950449;147;27409;-77
2023/08/16 00:59:52;;;;;;;4.30;3.47;;;21.10;99.90;;;;;;951591;147;27273;-76
2023/08/16 01:02:19;;;;;;;3.50;3.20;;;21.10;99.90;;;;;;951359;147;27344;-74
2023/08/16 01:04:46;;;;;;;3.50;3.20;;;21.00;99.90;;;;;;950889;147;27426;-75
2023/08/16 01:07:12;;;;;;;4.03;3.50;;;21.00;99.90;;;;;;950646;147;27336;-76
2023/08/16 01:09:39;;;;;;;3.83;3.42;;;21.00;99.90;;;;;;951347;147;27329;-76
2023/08/16 01:12:26;;;;;;;3.75;3.45;;;21.00;99.90;;;;;;951368;147;27381;-75
2023/08/16 01:14:56;;;;;;;4.72;4.00;;;21.00;99.90;;;;;;929411;150;27470;-79
2023/08/16 01:17:23;;;;;;;3.87;3.58;;;21.00;99.90;;;;;;927600;150;28520;-79
2023/08/16 01:19:49;;;;;;;3.90;3.55;;;21.00;99.90;;;;;;950392;146;27327;-77
2023/08/16 01:22:34;;;;;;;4.20;3.42;;;20.90;99.90;;;;;;951565;147;27294;-78
2023/08/16 01:25:19;;;;;;;3.83;3.52;;;20.90;99.90;;;;;;934660;149;27342;-78
2023/08/16 01:27:46;;;;;;;4.08;3.65;;;20.90;99.90;;;;;;950809;147;27336;-77
2023/08/16 01:30:12;;;;;;;4.10;3.80;;;20.90;99.90;;;;;;951252;147;27341;-78
2023/08/16 01:32:39;;;;;;;5.58;4.25;;;20.90;99.90;;;;;;950678;147;27460;-78
2023/08/16 01:35:05;;;;;;;4.55;3.98;;;20.90;99.90;;;;;;942925;148;27348;-78
2023/08/16 01:37:32;;;;;;;6.03;4.12;;;20.90;99.90;;;;;;943462;148;27404;-78
2023/08/16 01:40:01;;;;;;;5.53;4.37;;;21.00;99.90;;;;;;949510;148;27472;-78
2023/08/16 01:42:28;;;;;;;4.87;4.37;;;21.00;99.90;;;;;;948937;148;27417;-77
2023/08/16 01:44:54;;;;;;;4.67;3.52;;;21.00;99.90;;;;;;948626;148;27324;-78
2023/08/16 01:47:21;;;;;;;8.48;3.87;;;21.10;99.90;;;;;;949261;148;27389;-78
2023/08/16 01:49:47;;;;;;;4.70;4.30;;;21.20;99.90;;;;;;949139;148;27412;-78
2023/08/16 01:52:14;;;;;;;4.83;4.00;;;21.20;99.90;;;;;;948872;148;27344;-78
2023/08/16 01:54:41;;;;;;;4.28;3.87;;;21.30;99.90;;;;;;949326;148;27437;-78
2023/08/16 01:57:07;;;;;;;5.62;4.30;;;21.30;99.90;;;;;;948744;148;27316;-78
2023/08/16 01:59:34;;;;;;;4.17;3.60;;;21.40;99.90;;;;;;949795;148;27430;-78
2023/08/16 02:02:00;;;;;;;4.28;3.98;;;21.40;99.90;;;;;;949461;148;27449;-78
2023/08/16 02:04:27;;;;;;;4.90;4.35;;;21.50;99.90;;;;;;949658;148;27348;-78
2023/08/16 02:06:54;;;;;;;4.70;4.33;;;21.60;99.90;;;;;;948890;148;27419;-78
2023/08/16 02:09:20;;;;;;;4.62;4.08;;;21.60;99.90;;;;;;949628;148;27430;-78
2023/08/16 02:11:47;;;;;;;4.00;3.70;;;21.60;99.90;;;;;;949643;148;27376;-78
2023/08/16 02:14:13;;;;;;;4.47;4.08;;;21.70;99.90;;;;;;949185;148;27355;-78
2023/08/16 02:16:40;;;;;;;4.47;4.08;;;21.70;99.90;;;;;;948934;148;27446;-78
2023/08/16 02:19:07;;;;;;;4.15;3.75;;;21.80;99.90;;;;;;949814;148;27410;-78
2023/08/16 02:21:33;;;;;;;4.50;4.12;;;21.80;99.90;;;;;;949501;148;28813;-78
2023/08/16 02:24:00;;;;;;;4.67;3.67;;;21.80;99.90;;;;;;949819;148;27432;-78
2023/08/16 02:26:26;;;;;;;4.37;4.08;;;21.90;99.90;;;;;;948903;148;27332;-78
2023/08/16 02:28:53;;;;;;;4.37;3.98;;;21.90;99.90;;;;;;949150;148;27454;-78
2023/08/16 02:31:19;;;;;;;4.22;3.87;;;21.90;99.90;;;;;;955170;147;27332;-78
2023/08/16 02:33:46;;;;;;;4.65;4.22;;;22.00;99.90;;;;;;954938;147;27331;-79
2023/08/16 02:36:13;;;;;;;4.55;4.15;;;22.00;99.90;;;;;;954769;147;27338;-79
2023/08/16 02:38:39;;;;;;;4.90;3.70;;;22.00;99.90;;;;;;955101;147;27381;-79
2023/08/16 02:41:06;;;;;;;4.40;3.98;;;22.00;99.90;;;;;;946892;149;27259;-78
2023/08/16 02:43:32;;;;;;;4.00;3.70;;;22.10;99.90;;;;;;944506;149;27428;-79
2023/08/16 02:45:59;;;;;;;4.47;4.08;;;22.10;99.90;;;;;;967185;145;27435;-79
2023/08/16 02:48:26;;;;;;;5.45;4.15;;;22.10;99.90;;;;;;963592;146;28267;-79
2023/08/16 02:50:52;;;;;;;4.20;3.83;;;22.10;99.90;;;;;;958603;145;27278;-79
2023/08/16 02:53:19;;;;;;;4.37;4.03;;;22.20;99.90;;;;;;950775;147;27416;-79
2023/08/16 02:55:45;;;;;;;3.52;3.30;;;22.20;99.90;;;;;;951355;147;27309;-78
2023/08/16 02:58:12;;;;;;;4.65;3.40;;;22.20;99.90;;;;;;951315;147;27462;-79
2023/08/16 03:00:39;;;;;;;4.42;4.03;;;22.20;99.90;;;;;;950779;147;27317;-78
2023/08/16 03:03:06;;;;;;;4.17;3.77;;;22.30;99.90;;;;;;949998;147;27374;-79
2023/08/16 03:05:32;;;;;;;4.08;3.70;;;22.30;99.90;;;;;;950980;147;27420;-78
2023/08/16 03:07:58;;;;;;;4.47;4.08;;;22.30;99.90;;;;;;950588;147;27318;-77
2023/08/16 03:10:25;;;;;;;4.20;3.77;;;22.30;99.90;;;;;;951748;147;27364;-77
2023/08/16 03:12:52;;;;;;;5.92;4.03;;;22.30;99.90;;;;;;950933;147;29012;-79
2023/08/16 03:15:18;;;;;;;5.45;3.72;;;22.40;99.90;;;;;;951974;147;27256;-79
2023/08/16 03:17:45;;;;;;;4.28;3.98;;;22.40;99.90;;;;;;951437;147;27695;-78
2023/08/16 03:20:12;;;;;;;4.15;3.75;;;22.40;99.90;;;;;;951165;147;27337;-79
2023/08/16 03:22:38;;;;;;;3.77;3.47;;;22.50;99.90;;;;;;951375;147;27333;-79
2023/08/16 03:25:04;;;;;;;3.90;3.60;;;22.50;99.90;;;;;;951068;147;27301;-79
2023/08/16 03:27:31;;;;;;;4.20;3.60;;;22.50;99.90;;;;;;950839;147;27309;-78
2023/08/16 03:29:58;;;;;;;3.60;3.27;;;22.50;99.90;;;;;;950623;147;27422;-80
2023/08/16 03:32:24;;;;;;;4.08;3.65;;;22.50;99.90;;;;;;934858;150;27419;-79
2023/08/16 03:34:51;;;;;;;4.12;3.83;;;22.60;99.90;;;;;;927274;150;27470;-77
2023/08/16 03:37:17;;;;;;;4.92;3.90;;;22.60;99.90;;;;;;951530;147;27297;-78
2023/08/16 03:39:44;;;;;;;4.65;4.00;;;22.60;99.90;;;;;;950043;147;27339;-76
2023/08/16 03:42:11;;;;;;;5.35;3.80;;;22.60;99.90;;;;;;950070;147;27342;-77
2023/08/16 03:44:37;;;;;;;5.22;3.60;;;22.60;99.90;;;;;;950539;147;27411;-77
2023/08/16 03:47:04;;;;;;;6.92;3.70;;;22.70;99.90;;;;;;950725;147;27274;-77
2023/08/16 03:49:30;;;;;;;5.47;3.87;;;22.70;99.90;;;;;;951162;147;27402;-77
2023/08/16 03:51:57;;;;;;;7.50;3.87;;;22.80;99.90;;;;;;950538;147;27372;-77
2023/08/16 03:54:24;;;;;;;5.60;4.20;;;22.80;99.90;;;;;;951491;147;27357;-77
2023/08/16 03:56:50;;;;;;;4.15;3.75;;;22.80;99.90;;;;;;950940;147;27332;-76
2023/08/16 03:59:17;;;;;;;5.50;4.12;;;22.80;99.90;;;;;;951154;147;27375;-77
2023/08/16 04:01:43;;;;;;;5.42;3.60;;;22.80;99.90;;;;;;950602;147;27427;-77
2023/08/16 04:04:10;;;;;;;4.62;3.27;;;22.90;99.90;;;;;;950951;147;27330;-77
2023/08/16 04:06:38;;;;;;;4.05;3.33;;;22.90;99.90;;;;;;951477;147;27458;-77
2023/08/16 04:09:04;;;;;;;4.72;3.92;;;22.90;99.90;;;;;;950983;147;27411;-77
2023/08/16 04:11:30;;;;;;;4.20;3.80;;;22.90;99.90;;;;;;951028;147;27392;-77
2023/08/16 04:13:56;;;;;;;4.12;3.67;;;22.90;99.90;;;;;;950640;147;27426;-77
2023/08/16 04:16:23;;;;;;;3.10;2.90;;;22.90;99.90;;;;;;943505;148;28461;-77
2023/08/16 04:18:53;;;;;;;3.77;3.05;;;22.90;99.90;;;;;;951084;147;27644;-77
2023/08/16 04:21:16;;;;;;;6.37;3.25;;;22.90;99.90;;;;;;950738;147;27342;-77
2023/08/16 04:23:43;;;;;;;3.92;3.62;;;22.90;99.90;;;;;;951206;147;27368;-77
2023/08/16 04:26:09;;;;;;;3.40;3.02;;;23.00;99.90;;;;;;950976;147;27910;-77
2023/08/16 04:28:36;;;;;;;3.30;3.00;;;23.00;99.90;;;;;;951069;147;27371;-77
2023/08/16 04:31:04;;;;;;;3.67;3.37;;;22.90;99.90;;;;;;950917;147;27321;-77
2023/08/16 04:33:29;;;;;;;3.05;2.85;;;23.00;99.90;;;;;;941692;148;27387;-77
2023/08/16 04:35:56;;;;;;;3.20;2.95;;;23.00;99.90;;;;;;935410;149;27450;-77
2023/08/16 04:38:22;;;;;;;3.77;3.40;;;23.00;99.90;;;;;;950816;147;27381;-77
2023/08/16 04:40:52;;;;;;;4.17;3.40;;;23.00;99.90;;;;;;927481;150;27260;-77
2023/08/16 04:43:15;;;;;;;4.10;3.67;;;23.00;99.90;;;;;;949129;147;27430;-77
2023/08/16 04:45:42;;;;;;;4.53;3.65;;;23.00;99.90;;;;;;951549;147;27302;-77
2023/08/16 04:48:09;;;;;;;5.87;3.87;;;23.00;99.90;;;;;;950995;147;27351;-77
2023/08/16 04:50:35;;;;;;;6.12;4.17;;;23.00;99.90;;;;;;928604;150;27456;-75
2023/08/16 04:53:02;;;;;;;8.68;4.42;;;23.00;99.90;;;;;;939563;147;27365;-76
2023/08/16 04:55:28;;;;;;;8.38;4.33;;;23.00;99.90;;;;;;934099;150;27340;-75
2023/08/16 04:57:55;;;;;;;12.70;6.33;;;22.90;99.90;;;;;;943653;149;27482;-76
2023/08/16 05:00:21;;;;;;;8.90;5.08;;;22.90;99.90;;;;;;958541;147;27346;-75
2023/08/16 05:02:48;;;;;;;10.43;4.97;;;22.90;99.90;;;;;;957541;147;27862;-75
2023/08/16 05:05:15;;;;;;;11.78;5.83;;;22.90;99.90;;;;;;958032;147;27335;-75
2023/08/16 05:07:41;;;;;;;10.82;5.30;;;22.90;99.90;;;;;;957909;147;27273;-76
2023/08/16 05:10:08;;;;;;;11.53;6.15;;;22.90;99.90;;;;;;958094;147;27356;-76
2023/08/16 05:12:34;;;;;;;11.45;5.92;;;22.90;99.90;;;;;;958804;147;27705;-75
2023/08/16 05:15:01;;;;;;;10.98;5.87;;;22.90;99.90;;;;;;958041;147;27245;-75
2023/08/16 05:17:28;;;;;;;18.30;7.17;;;22.90;99.90;;;;;;957881;149;27233;-76
2023/08/16 05:19:54;;;;;;;16.35;7.20;;;22.90;99.90;;;;;;958780;147;27303;-76
2023/08/16 05:22:24;;;;;;;11.33;5.55;;;22.90;99.90;;;;;;958163;147;27926;-75
2023/08/16 05:24:47;;;;;;;14.13;6.20;;;22.90;99.90;;;;;;958382;147;27346;-76
2023/08/16 05:27:14;;;;;;;10.05;5.95;;;22.90;99.90;;;;;;957926;147;27722;-75
2023/08/16 05:29:41;;;;;;;12.55;6.60;;;23.00;99.90;;;;;;958749;149;27410;-76
2023/08/16 05:32:07;;;;;;;13.53;6.87;;;23.00;99.90;;;;;;958359;147;27434;-77
2023/08/16 05:34:34;;;;;;;12.90;6.12;;;23.10;99.90;;;;;;958640;149;27435;-75
2023/08/16 05:37:00;;;;;;;12.53;6.37;;;23.20;99.90;;;;;;957703;147;28406;-75
2023/08/16 05:39:27;;;;;;;13.60;7.12;;;23.30;99.90;;;;;;958472;147;27428;-75
2023/08/16 05:41:54;;;;;;;10.48;5.92;;;23.40;99.90;;;;;;958549;147;27332;-76
2023/08/16 05:44:20;;;;;;;15.95;7.17;;;23.50;99.90;;;;;;956527;148;27750;-76
2023/08/16 05:46:47;;;;;;;13.43;7.70;;;23.60;99.90;;;;;;958816;149;27347;-75
2023/08/16 05:49:13;;;;;;;12.65;6.62;;;23.70;99.90;;;;;;958495;147;27299;-75
2023/08/16 05:51:40;;;;;;;10.53;6.55;;;23.90;99.90;;;;;;958580;147;27245;-76
2023/08/16 05:54:06;;;;;;;14.95;7.65;;;24.10;99.90;;;;;;963539;146;27427;-76
2023/08/16 05:56:33;;;;;;;18.32;7.85;;;24.30;99.90;;;;;;964342;146;27346;-75
2023/08/16 05:59:00;;;;;;;14.10;7.37;;;24.50;99.90;;;;;;964305;146;27360;-75
2023/08/16 06:01:26;;;;;;;13.00;7.47;;;24.60;99.90;;;;;;963200;145;27408;-78
2023/08/16 06:03:53;;;;;;;11.30;7.28;;;24.80;99.90;;;;;;964289;145;27395;-78
2023/08/16 06:06:19;;;;;;;12.68;7.53;;;24.90;99.90;;;;;;963699;145;27336;-76
2023/08/16 06:08:46;;;;;;;13.13;7.53;;;25.10;99.90;;;;;;963538;148;27445;-78
2023/08/16 06:11:13;;;;;;;14.47;7.90;;;25.20;99.90;;;;;;943693;148;27335;-78
2023/08/16 06:13:40;;;;;;;11.15;8.05;;;25.40;99.90;;;;;;946496;148;27316;-78
2023/08/16 06:16:06;;;;;;;15.58;8.30;;;25.70;99.90;;;;;;966993;145;27248;-77
2023/08/16 06:18:32;;;;;;;14.30;8.95;;;25.80;99.90;;;;;;962931;145;27428;-77
2023/08/16 06:20:59;;;;;;;13.32;9.00;;;26.00;99.90;;;;;;963750;146;27420;-78
2023/08/16 06:23:26;;;;;;;14.43;8.65;;;26.10;99.90;;;;;;963135;145;27324;-78
2023/08/16 06:25:52;;;;;;;13.62;8.88;;;26.30;99.90;;;;;;963882;145;27233;-77
2023/08/16 06:28:19;;;;;;;12.50;8.68;;;26.40;99.90;;;;;;964770;146;27323;-77
2023/08/16 06:30:45;;;;;;;10.95;8.28;;;26.50;99.90;;;;;;964150;146;27343;-78
2023/08/16 06:33:12;;;;;;;11.78;7.78;;;26.70;99.90;;;;;;963772;145;27276;-78
2023/08/16 06:35:39;;;;;;;12.43;7.50;;;26.90;99.90;;;;;;964018;145;27315;-76
2023/08/16 06:38:06;;;;;;;11.43;8.23;;;27.00;99.90;;;;;;963334;145;27315;-78
2023/08/16 06:40:32;;;;;;;10.88;8.08;;;27.10;99.90;;;;;;964149;146;27344;-79
2023/08/16 06:42:58;;;;;;;9.60;7.08;;;27.20;99.90;;;;;;963873;145;27320;-78
2023/08/16 06:45:25;;;;;;;9.50;7.37;;;27.20;99.90;;;;;;947324;148;27685;-78
2023/08/16 06:47:51;;;;;;;10.40;7.75;;;27.10;99.90;;;;;;963734;146;27270;-77
2023/08/16 06:50:18;;;;;;;11.25;7.05;;;27.00;99.80;;;;;;963566;145;27437;-77
2023/08/16 06:52:45;;;;;;;7.78;6.28;;;26.90;99.60;;;;;;941876;149;27377;-78
2023/08/16 06:55:11;;;;;;;6.28;5.47;;;26.70;99.70;;;;;;942552;149;27352;-77
2023/08/16 06:57:38;;;;;;;8.20;6.33;;;26.50;99.90;;;;;;942936;149;27302;-77
2023/08/16 07:00:05;;;;;;;7.15;6.40;;;26.40;99.90;;;;;;943723;149;27337;-77
2023/08/16 07:02:31;;;;;;;6.33;5.80;;;26.20;99.90;;;;;;933649;150;27435;-77
2023/08/16 07:04:58;;;;;;;6.50;5.65;;;26.10;99.90;;;;;;941970;149;27451;-76
2023/08/16 07:07:24;;;;;;;6.37;5.78;;;26.00;99.90;;;;;;952952;149;27217;-78
2023/08/16 07:09:51;;;;;;;6.28;5.75;;;25.80;99.90;;;;;;952376;150;27337;-76
2023/08/16 07:12:17;;;;;;;6.20;5.60;;;25.70;99.90;;;;;;952864;148;28229;-76
2023/08/16 07:14:44;;;;;;;5.60;5.00;;;25.60;99.90;;;;;;952419;149;27339;-76
2023/08/16 07:17:11;;;;;;;7.05;6.30;;;25.50;99.90;;;;;;952382;149;27429;-75
2023/08/16 07:19:37;;;;;;;8.98;6.37;;;25.50;99.90;;;;;;952299;149;27429;-76
2023/08/16 07:22:04;;;;;;;8.70;7.65;;;25.50;99.90;;;;;;952107;149;27405;-76
2023/08/16 07:24:30;;;;;;;10.72;6.78;;;25.50;99.90;;;;;;952464;148;27312;-76
2023/08/16 07:26:58;;;;;;;7.20;6.53;;;25.50;99.90;;;;;;952670;148;27337;-75
2023/08/16 07:29:24;;;;;;;11.08;7.33;;;25.70;99.90;;;;;;952711;148;27324;-76
2023/08/16 07:31:54;;;;;;;9.08;6.95;;;25.80;99.90;;;;;;951976;148;27262;-76
2023/08/16 07:34:17;;;;;;;11.12;7.22;;;26.10;99.90;;;;;;952296;149;27320;-76
2023/08/16 07:36:43;;;;;;;7.03;6.33;;;26.60;99.90;;;;;;952883;148;27791;-76
2023/08/16 07:39:11;;;;;;;7.78;6.72;;;27.20;99.90;;;;;;952609;148;27464;-76
2023/08/16 07:41:37;;;;;;;8.38;6.37;;;28.10;99.90;;;;;;952613;149;27429;-76
2023/08/16 07:44:03;;;;;;;7.50;6.00;;;29.10;99.90;;;;;;953360;148;27805;-76
2023/08/16 07:46:30;;;;;;;6.17;5.58;;;30.20;99.90;;;;;;952146;150;26218;-76
2023/08/16 07:48:58;;;;;;;4.58;4.15;;;31.30;99.90;;;;;;953087;149;26336;-76
2023/08/16 07:51:23;;;;;;;7.65;4.95;;;32.50;99.90;;;;;;952349;148;26227;-76
2023/08/16 07:53:49;;;;;;;5.08;4.65;;;33.80;99.90;;;;;;954948;148;26223;-76
2023/08/16 07:56:16;;;;;;;4.47;3.98;;;34.90;96.70;;;;;;958745;148;26236;-77
2023/08/16 07:58:43;;;;;;;4.37;3.98;;;36.00;93.40;;;;;;959917;148;26332;-76
2023/08/16 08:01:09;;;;;;;4.75;4.25;;;36.90;86.20;;;;;;958452;149;26193;-77
2023/08/16 08:03:36;;;;;;;4.00;3.67;;;37.80;80.30;;;;;;957448;149;26259;-77
2023/08/16 08:06:02;;;;;;;4.70;4.22;;;38.50;76.70;;;;;;958143;148;26236;-77
2023/08/16 08:08:29;;;;;;;4.62;3.70;;;39.10;71.70;;;;;;946362;149;26405;-77
2023/08/16 08:10:56;;;;;;;5.37;3.60;;;39.70;68.60;;;;;;963590;145;26245;-76
2023/08/16 08:13:22;;;;;;;4.03;3.37;;;40.20;66.20;;;;;;963832;145;26623;-77
2023/08/16 08:15:49;;;;;;;3.30;3.05;;;40.70;65.00;;;;;;963240;145;26222;-77
2023/08/16 08:18:15;;;;;;;3.47;3.15;;;41.20;63.00;;;;;;963217;146;26212;-77
2023/08/16 08:20:42;;;;;;;3.08;2.75;;;41.80;61.40;;;;;;963882;145;26356;-77
2023/08/16 08:23:09;;;;;;;3.00;2.80;;;42.40;59.90;;;;;;964336;145;26285;-77
2023/08/16 08:25:35;;;;;;;2.67;2.47;;;43.00;58.80;;;;;;964033;146;26239;-76
2023/08/16 08:28:03;;;;;;;5.85;2.85;;;43.50;56.90;;;;;;964280;145;26222;-77
2023/08/16 08:30:28;;;;;;;2.75;2.55;;;43.80;54.60;;;;;;946349;149;26727;-77
2023/08/16 08:32:57;;;;;;;3.00;2.45;;;44.00;53.20;;;;;;944280;149;26342;-76
2023/08/16 08:35:22;;;;;;;2.22;2.05;;;44.20;52.60;;;;;;966563;145;26219;-77
2023/08/16 08:37:48;;;;;;;2.85;2.42;;;44.30;52.50;;;;;;964740;146;26218;-77
2023/08/16 08:40:15;;;;;;;2.30;2.20;;;44.50;51.70;;;;;;966804;145;26231;-77
2023/08/16 08:42:41;;;;;;;3.50;2.37;;;44.80;51.30;;;;;;963920;145;26251;-77
2023/08/16 08:45:08;;;;;;;2.52;2.33;;;45.10;50.50;;;;;;962955;145;26220;-77
2023/08/16 08:47:35;;;;;;;2.50;2.40;;;45.40;49.70;;;;;;964297;145;26334;-77
2023/08/16 08:50:02;;;;;;;4.58;2.70;;;45.50;48.70;;;;;;963652;146;26227;-77
2023/08/16 08:52:28;;;;;;;3.05;2.60;;;45.50;47.50;;;;;;964328;145;26290;-77
2023/08/16 08:54:54;;;;;;;2.30;2.10;;;45.40;47.10;;;;;;959619;146;26304;-77
2023/08/16 08:57:21;;;;;;;2.67;2.42;;;45.40;47.20;;;;;;963819;145;26332;-77
2023/08/16 08:59:49;;;;;;;2.45;2.25;;;45.30;47.30;;;;;;963537;145;26253;-77
2023/08/16 09:02:14;;;;;;;2.00;1.90;;;45.40;47.10;;;;;;962836;145;26752;-77
2023/08/16 09:04:41;;;;;;;1.80;1.70;;;45.60;47.30;;;;;;964216;145;26259;-76
2023/08/16 09:07:07;;;;;;;2.00;1.80;;;45.70;46.60;;;;;;963962;145;26230;-77
2023/08/16 09:09:34;;;;;;;1.92;1.80;;;46.00;46.00;;;;;;964154;146;26196;-77
2023/08/16 09:12:00;;;;;;;1.77;1.67;;;46.20;45.90;;;;;;963892;145;26212;-77
2023/08/16 09:14:27;;;;;;;1.80;1.70;;;46.30;44.70;;;;;;964137;146;26243;-77
2023/08/16 09:16:54;;;;;;;1.95;1.85;;;46.30;44.00;;;;;;964292;146;26351;-77
2023/08/16 09:19:20;;;;;;;2.25;2.05;;;46.40;43.90;;;;;;963413;146;26255;-76
2023/08/16 09:21:47;;;;;;;2.77;1.90;;;46.40;43.80;;;;;;964663;145;26297;-77
2023/08/16 09:24:13;;;;;;;1.85;1.50;;;46.40;43.70;;;;;;963219;145;26226;-77
2023/08/16 09:26:40;;;;;;;1.92;1.82;;;46.40;43.30;;;;;;963753;146;26272;-77
2023/08/16 09:29:06;;;;;;;1.90;1.80;;;46.50;43.20;;;;;;964060;146;26348;-76
2023/08/16 09:31:39;;;;;;;2.00;1.82;;;46.50;42.90;;;;;;943891;149;26245;-78
2023/08/16 09:34:09;;;;;;;2.08;1.60;;;46.60;42.80;;;;;;948458;148;26366;-78
2023/08/16 09:36:37;;;;;;;2.00;1.90;;;46.80;42.60;;;;;;943977;149;26369;-77
2023/08/16 09:39:09;;;;;;;1.67;1.57;;;46.90;42.20;;;;;;945250;148;26681;-79
2023/08/16 09:41:33;;;;;;;3.67;1.90;;;47.00;41.70;;;;;;963228;145;26212;-78
2023/08/16 09:44:03;;;;;;;2.35;1.67;;;46.90;40.80;;;;;;962408;145;26270;-77
2023/08/16 09:46:29;;;;;;;1.92;1.82;;;46.60;40.20;;;;;;944093;149;26377;-79
2023/08/16 09:49:06;;;;;;;2.10;1.90;;;46.20;39.70;;;;;;963610;146;26336;-78
2023/08/16 09:51:32;;;;;;;1.77;1.67;;;45.70;39.60;;;;;;962928;145;26351;-78
2023/08/16 09:53:58;;;;;;;1.70;1.60;;;45.10;40.10;;;;;;963188;145;26230;-77
2023/08/16 09:56:25;;;;;;;1.95;1.85;;;44.60;40.60;;;;;;964794;145;26379;-78
2023/08/16 09:58:51;;;;;;;2.60;1.90;;;44.10;40.90;;;;;;968207;145;26243;-79
2023/08/16 10:01:18;;;;;;;2.20;2.00;;;43.70;41.00;;;;;;967659;145;26336;-78
2023/08/16 10:03:44;;;;;;;2.87;2.10;;;43.20;41.30;;;;;;948259;148;26200;-78
2023/08/16 10:06:11;;;;;;;3.10;2.15;;;42.70;41.40;;;;;;966421;145;26358;-77
2023/08/16 10:08:38;;;;;;;1.95;1.85;;;42.20;41.60;;;;;;964657;148;28302;-79
2023/08/16 10:11:04;;;;;;;2.22;1.85;;;41.60;42.60;;;;;;964588;148;26250;-79
2023/08/16 10:13:31;;;;;;;2.67;1.90;;;41.10;42.60;;;;;;963484;148;27797;-78
2023/08/16 10:15:57;;;;;;;2.58;2.12;;;40.60;43.40;;;;;;964659;148;26219;-76
2023/08/16 10:18:24;;;;;;;2.80;1.95;;;40.30;43.60;;;;;;964103;146;26318;-79
2023/08/16 10:20:50;;;;;;;2.20;2.00;;;39.90;44.00;;;;;;965126;148;26155;-79
2023/08/16 10:23:17;;;;;;;2.90;1.95;;;39.70;44.30;;;;;;949991;148;26251;-78
2023/08/16 10:25:46;;;;;;;2.83;2.40;;;39.40;44.50;;;;;;968200;145;26304;-78
2023/08/16 10:28:16;;;;;;;2.98;2.15;;;39.30;44.50;;;;;;968092;145;26422;-78
2023/08/16 10:30:42;;;;;;;3.17;2.00;;;39.10;45.00;;;;;;968286;145;26345;-78
2023/08/16 10:33:09;;;;;;;2.00;1.82;;;39.00;44.90;;;;;;967038;145;26324;-78
2023/08/16 10:35:36;;;;;;;2.12;1.87;;;38.80;44.80;;;;;;966849;145;26246;-76
2023/08/16 10:38:03;;;;;;;2.40;2.22;;;38.70;44.90;;;;;;968580;145;26286;-79
2023/08/16 10:40:29;;;;;;;2.50;2.12;;;38.50;45.30;;;;;;967433;145;26359;-74
2023/08/16 10:42:58;;;;;;;2.70;2.05;;;38.40;45.50;;;;;;968895;145;26300;-75
2023/08/16 10:45:28;;;;;;;2.00;1.90;;;38.30;45.50;;;;;;967823;145;26229;-75
2023/08/16 10:47:54;;;;;;;2.30;1.82;;;38.20;45.60;;;;;;968040;145;27835;-74
2023/08/16 10:50:21;;;;;;;2.40;2.20;;;38.00;45.80;;;;;;967623;145;26234;-73
2023/08/16 10:52:47;;;;;;;2.27;2.08;;;37.90;45.90;;;;;;947650;148;26346;-75
2023/08/16 10:55:14;;;;;;;2.20;2.00;;;37.80;46.20;;;;;;968243;145;26223;-75
2023/08/16 10:57:41;;;;;;;2.22;2.02;;;37.70;46.20;;;;;;956242;145;26245;-78
2023/08/16 11:00:08;;;;;;;1.90;1.80;;;37.60;46.20;;;;;;949013;147;27419;-75
2023/08/16 11:02:34;;;;;;;2.33;2.00;;;37.50;46.40;;;;;;950291;147;26221;-73
2023/08/16 11:05:00;;;;;;;3.08;1.98;;;37.50;46.50;;;;;;950329;147;26343;-75
2023/08/16 11:07:28;;;;;;;2.10;1.90;;;37.40;46.50;;;;;;950957;147;26236;-76
2023/08/16 11:09:53;;;;;;;2.65;2.15;;;37.30;46.30;;;;;;951266;147;26276;-77
2023/08/16 11:12:20;;;;;;;2.10;1.90;;;37.20;46.50;;;;;;950216;147;27442;-76
2023/08/16 11:14:47;;;;;;;2.72;2.08;;;37.00;46.40;;;;;;951095;147;27279;-73
2023/08/16 11:17:16;;;;;;;2.30;2.08;;;36.90;46.40;;;;;;950984;147;27259;-74
2023/08/16 11:19:43;;;;;;;2.83;1.85;;;36.70;46.60;;;;;;927673;150;27888;-75
2023/08/16 11:22:09;;;;;;;2.37;2.22;;;36.50;46.70;;;;;;931333;150;27365;-73
2023/08/16 11:24:36;;;;;;;2.77;2.02;;;36.30;47.30;;;;;;950229;147;26363;-75
2023/08/16 11:27:02;;;;;;;2.40;2.12;;;36.20;47.20;;;;;;950129;147;27309;-75
2023/08/16 11:29:29;;;;;;;2.83;2.20;;;36.00;47.30;;;;;;950739;147;27381;-77
2023/08/16 11:31:56;;;;;;;2.35;2.15;;;35.80;47.80;;;;;;951159;147;27481;-75
2023/08/16 11:34:22;;;;;;;2.02;1.85;;;35.70;48.00;;;;;;933666;150;27369;-76
2023/08/16 11:36:49;;;;;;;2.58;2.15;;;35.70;48.10;;;;;;950982;147;27293;-75
2023/08/16 11:39:15;;;;;;;2.30;2.10;;;35.60;48.30;;;;;;951106;147;27346;-75
2023/08/16 11:41:42;;;;;;;1.85;1.75;;;35.50;48.40;;;;;;950963;147;27464;-74
2023/08/16 11:44:08;;;;;;;1.60;1.50;;;35.40;48.40;;;;;;950300;147;27345;-74
2023/08/16 11:46:44;;;;;;;2.65;2.50;;;35.40;48.40;;;;;;950102;147;27739;-74
2023/08/16 11:49:14;;;;;;;2.22;2.00;;;35.30;48.50;;;;;;949762;147;27362;-75
2023/08/16 11:51:40;;;;;;;2.55;2.05;;;35.20;48.50;;;;;;949420;147;27317;-75
2023/08/16 11:54:07;;;;;;;1.80;1.70;;;35.10;48.80;;;;;;950620;147;27350;-74
2023/08/16 11:56:33;;;;;;;2.20;2.00;;;35.00;49.00;;;;;;950538;147;27362;-73
2023/08/16 11:59:00;;;;;;;3.87;1.80;;;35.00;49.10;;;;;;950519;147;27295;-76
2023/08/16 12:01:27;;;;;;;2.22;2.10;;;35.00;49.10;;;;;;949428;146;27410;-75
2023/08/16 12:03:53;;;;;;;2.05;1.87;;;35.00;49.10;;;;;;949600;147;27345;-76
2023/08/16 12:06:22;;;;;;;2.85;2.17;;;34.90;49.30;;;;;;950288;147;27448;-74
2023/08/16 12:08:52;;;;;;;1.77;1.67;;;34.90;49.50;;;;;;949087;147;27466;-74
2023/08/16 12:11:33;;;;;;;2.35;2.20;;;34.90;49.50;;;;;;949925;147;27337;-74
2023/08/16 12:14:00;;;;;;;2.35;2.12;;;34.90;49.70;;;;;;950906;147;27349;-74
2023/08/16 12:16:26;;;;;;;1.77;1.67;;;34.90;49.70;;;;;;951339;147;27314;-74
2023/08/16 12:18:53;;;;;;;2.22;2.02;;;34.90;49.60;;;;;;951259;147;27306;-74
2023/08/16 12:21:20;;;;;;;3.08;2.05;;;34.90;49.60;;;;;;950825;147;27306;-74
2023/08/16 12:23:46;;;;;;;2.15;2.00;;;34.80;49.50;;;;;;951097;147;27328;-77
2023/08/16 12:26:16;;;;;;;2.02;1.90;;;34.80;49.60;;;;;;950493;147;27338;-75
2023/08/16 12:28:42;;;;;;;1.87;1.77;;;34.80;49.60;;;;;;950725;147;27625;-74
2023/08/16 12:31:09;;;;;;;3.70;2.30;;;34.90;49.60;;;;;;950046;147;27312;-75
2023/08/16 12:33:35;;;;;;;1.80;1.70;;;34.90;49.40;;;;;;950849;147;27317;-76
2023/08/16 12:36:02;;;;;;;2.83;1.72;;;34.90;49.30;;;;;;951534;147;27441;-74
2023/08/16 12:38:29;;;;;;;1.80;1.70;;;34.90;49.30;;;;;;951245;147;27387;-74
2023/08/16 12:40:55;;;;;;;1.60;1.50;;;34.90;49.30;;;;;;950594;147;27316;-75
2023/08/16 12:43:22;;;;;;;1.70;1.60;;;35.00;49.10;;;;;;950917;147;27308;-76